sensor_id;sensor_type;location;lat;lon;timestamp;pressure;altitude;pressure_sealevel;temperature;humidity
30873;BME280;17579;42.690;2.586;2023-05-02T00:01:24;97405.72;;;16.62;51.15
30873;BME280;17579;42.690;2.586;2023-05-02T00:03:50;97404.09;;;16.61;51.24
30873;BME280;17579;42.690;2.586;2023-05-02T00:06:16;97394.41;;;16.60;50.63
30873;BME280;17579;42.690;2.586;2023-05-02T00:08:50;97392.91;;;16.57;50.73
30873;BME280;17579;42.690;2.586;2023-05-02T00:11:18;97387.94;;;16.54;50.80
30873;BME280;17579;42.690;2.586;2023-05-02T00:13:44;97378.63;;;16.50;50.85
30873;BME280;17579;42.690;2.586;2023-05-02T00:16:19;97381.66;;;16.47;50.86
30873;BME280;17579;42.690;2.586;2023-05-02T00:18:52;97376.31;;;16.47;50.84
30873;BME280;17579;42.690;2.586;2023-05-02T00:21:49;97376.69;;;16.44;50.76
30873;BME280;17579;42.690;2.586;2023-05-02T00:24:17;97372.34;;;16.43;50.22
30873;BME280;17579;42.690;2.586;2023-05-02T00:26:56;97348.19;;;16.36;50.31
30873;BME280;17579;42.690;2.586;2023-05-02T00:29:49;97353.72;;;16.35;50.25
30873;BME280;17579;42.690;2.586;2023-05-02T00:32:17;97351.78;;;16.28;50.36
30873;BME280;17579;42.690;2.586;2023-05-02T00:34:46;97355.63;;;16.26;50.77
30873;BME280;17579;42.690;2.586;2023-05-02T00:37:25;97352.50;;;16.22;50.68
30873;BME280;17579;42.690;2.586;2023-05-02T00:39:57;97342.47;;;16.24;50.81
30873;BME280;17579;42.690;2.586;2023-05-02T00:42:32;97332.97;;;16.22;50.33
30873;BME280;17579;42.690;2.586;2023-05-02T00:45:51;97342.81;;;16.21;50.78
30873;BME280;17579;42.690;2.586;2023-05-02T00:48:06;97335.00;;;16.20;50.23
30873;BME280;17579;42.690;2.586;2023-05-02T00:50:36;97339.88;;;16.16;50.52
30873;BME280;17579;42.690;2.586;2023-05-02T00:53:03;97343.19;;;16.18;50.64
30873;BME280;17579;42.690;2.586;2023-05-02T00:55:41;97337.34;;;16.15;50.30
30873;BME280;17579;42.690;2.586;2023-05-02T00:58:17;97346.56;;;16.12;50.70
30873;BME280;17579;42.690;2.586;2023-05-02T01:08:59;97324.09;;;16.06;50.53
30873;BME280;17579;42.690;2.586;2023-05-02T01:11:43;97318.59;;;16.08;49.86
30873;BME280;17579;42.690;2.586;2023-05-02T01:14:16;97324.75;;;16.08;50.14
30873;BME280;17579;42.690;2.586;2023-05-02T01:16:46;97319.59;;;16.07;50.15
30873;BME280;17579;42.690;2.586;2023-05-02T01:19:38;97321.13;;;16.01;50.40
30873;BME280;17579;42.690;2.586;2023-05-02T01:22:08;97314.44;;;16.05;49.97
30873;BME280;17579;42.690;2.586;2023-05-02T01:24:47;97312.31;;;16.01;50.45
30873;BME280;17579;42.690;2.586;2023-05-02T01:27:27;97324.78;;;16.00;50.32
30873;BME280;17579;42.690;2.586;2023-05-02T01:30:11;97313.94;;;16.02;49.85
30873;BME280;17579;42.690;2.586;2023-05-02T01:32:58;97311.28;;;16.02;49.74
30873;BME280;17579;42.690;2.586;2023-05-02T01:35:29;97308.97;;;15.99;50.11
30873;BME280;17579;42.690;2.586;2023-05-02T01:38:16;97315.97;;;16.00;50.41
30873;BME280;17579;42.690;2.586;2023-05-02T01:40:58;97315.16;;;15.99;50.14
30873;BME280;17579;42.690;2.586;2023-05-02T01:43:58;97314.38;;;15.90;50.21
30873;BME280;17579;42.690;2.586;2023-05-02T01:46:31;97324.03;;;15.91;50.16
30873;BME280;17579;42.690;2.586;2023-05-02T01:49:09;97321.34;;;15.91;50.31
30873;BME280;17579;42.690;2.586;2023-05-02T01:51:59;97323.25;;;15.83;50.31
30873;BME280;17579;42.690;2.586;2023-05-02T01:54:32;97323.56;;;15.88;50.02
30873;BME280;17579;42.690;2.586;2023-05-02T01:57:11;97322.06;;;15.85;50.24
30873;BME280;17579;42.690;2.586;2023-05-02T01:59:39;97318.22;;;15.88;50.04
30873;BME280;17579;42.690;2.586;2023-05-02T02:02:24;97317.75;;;15.84;49.85
30873;BME280;17579;42.690;2.586;2023-05-02T02:04:53;97319.75;;;15.82;49.82
30873;BME280;17579;42.690;2.586;2023-05-02T02:07:30;97313.75;;;15.80;49.87
30873;BME280;17579;42.690;2.586;2023-05-02T02:09:59;97308.28;;;15.82;49.22
30873;BME280;17579;42.690;2.586;2023-05-02T02:12:39;97306.25;;;15.75;49.56
30873;BME280;17579;42.690;2.586;2023-05-02T02:15:17;97315.63;;;15.71;49.45
30873;BME280;17579;42.690;2.586;2023-05-02T02:17:45;97313.25;;;15.76;49.23
30873;BME280;17579;42.690;2.586;2023-05-02T02:20:28;97320.44;;;15.76;48.93
30873;BME280;17579;42.690;2.586;2023-05-02T02:23:04;97336.44;;;15.76;49.09
30873;BME280;17579;42.690;2.586;2023-05-02T02:25:39;97318.59;;;15.76;48.74
30873;BME280;17579;42.690;2.586;2023-05-02T02:28:17;97326.09;;;15.73;49.19
30873;BME280;17579;42.690;2.586;2023-05-02T02:30:45;97317.09;;;15.74;48.87
30873;BME280;17579;42.690;2.586;2023-05-02T02:33:18;97323.44;;;15.73;48.56
30873;BME280;17579;42.690;2.586;2023-05-02T02:35:52;97326.09;;;15.73;49.05
30873;BME280;17579;42.690;2.586;2023-05-02T02:38:37;97333.09;;;15.74;48.75
30873;BME280;17579;42.690;2.586;2023-05-02T02:41:21;97332.28;;;15.73;48.79
30873;BME280;17579;42.690;2.586;2023-05-02T02:44:20;97326.78;;;15.75;48.95
30873;BME280;17579;42.690;2.586;2023-05-02T02:49:37;97320.94;;;15.71;48.50
30873;BME280;17579;42.690;2.586;2023-05-02T03:00:38;97327.13;;;15.72;49.06
30873;BME280;17579;42.690;2.586;2023-05-02T03:03:21;97339.97;;;15.68;48.79
30873;BME280;17579;42.690;2.586;2023-05-02T03:05:59;97340.97;;;15.67;48.84
30873;BME280;17579;42.690;2.586;2023-05-02T03:08:25;97340.16;;;15.67;49.20
30873;BME280;17579;42.690;2.586;2023-05-02T03:10:59;97336.16;;;15.63;49.29
30873;BME280;17579;42.690;2.586;2023-05-02T03:13:25;97337.19;;;15.62;49.15
30873;BME280;17579;42.690;2.586;2023-05-02T03:16:05;97349.31;;;15.64;49.59
30873;BME280;17579;42.690;2.586;2023-05-02T03:18:40;97340.69;;;15.62;49.35
30873;BME280;17579;42.690;2.586;2023-05-02T03:21:29;97329.88;;;15.55;49.57
30873;BME280;17579;42.690;2.586;2023-05-02T03:24:13;97341.03;;;15.59;49.39
30873;BME280;17579;42.690;2.586;2023-05-02T03:26:47;97341.69;;;15.61;48.76
30873;BME280;17579;42.690;2.586;2023-05-02T03:29:13;97336.06;;;15.56;48.97
30873;BME280;17579;42.690;2.586;2023-05-02T03:31:42;97330.72;;;15.56;48.93
30873;BME280;17579;42.690;2.586;2023-05-02T03:34:07;97327.38;;;15.54;48.99
30873;BME280;17579;42.690;2.586;2023-05-02T03:36:48;97329.09;;;15.47;49.00
30873;BME280;17579;42.690;2.586;2023-05-02T03:39:14;97338.91;;;15.54;48.75
30873;BME280;17579;42.690;2.586;2023-05-02T03:44:39;97334.56;;;15.53;48.56
30873;BME280;17579;42.690;2.586;2023-05-02T03:47:04;97331.41;;;15.50;48.79
30873;BME280;17579;42.690;2.586;2023-05-02T03:49:39;97328.75;;;15.50;48.75
30873;BME280;17579;42.690;2.586;2023-05-02T03:52:07;97323.59;;;15.48;49.04
30873;BME280;17579;42.690;2.586;2023-05-02T03:54:43;97333.06;;;15.51;48.56
30873;BME280;17579;42.690;2.586;2023-05-02T03:57:11;97327.09;;;15.49;48.63
30873;BME280;17579;42.690;2.586;2023-05-02T03:59:44;97317.59;;;15.46;48.30
30873;BME280;17579;42.690;2.586;2023-05-02T04:02:30;97319.41;;;15.46;48.40
30873;BME280;17579;42.690;2.586;2023-05-02T04:04:58;97327.13;;;15.40;48.65
30873;BME280;17579;42.690;2.586;2023-05-02T04:07:24;97321.13;;;15.38;48.67
30873;BME280;17579;42.690;2.586;2023-05-02T04:09:55;97320.31;;;15.38;48.86
30873;BME280;17579;42.690;2.586;2023-05-02T04:12:20;97327.13;;;15.40;48.48
30873;BME280;17579;42.690;2.586;2023-05-02T04:14:51;97327.13;;;15.40;48.44
30873;BME280;17579;42.690;2.586;2023-05-02T04:17:20;97325.28;;;15.41;48.88
30873;BME280;17579;42.690;2.586;2023-05-02T04:19:51;97315.78;;;15.38;48.83
30873;BME280;17579;42.690;2.586;2023-05-02T04:22:19;97320.84;;;15.33;48.85
30873;BME280;17579;42.690;2.586;2023-05-02T04:24:50;97334.34;;;15.32;49.19
30873;BME280;17579;42.690;2.586;2023-05-02T04:27:17;97325.66;;;15.30;49.08
30873;BME280;17579;42.690;2.586;2023-05-02T04:29:53;97338.53;;;15.26;49.60
30873;BME280;17579;42.690;2.586;2023-05-02T04:32:35;97329.84;;;15.24;49.80
30873;BME280;17579;42.690;2.586;2023-05-02T04:35:03;97338.88;;;15.23;49.88
30873;BME280;17579;42.690;2.586;2023-05-02T04:37:31;97322.88;;;15.23;50.07
30873;BME280;17579;42.690;2.586;2023-05-02T04:40:01;97325.03;;;15.19;50.33
30873;BME280;17579;42.690;2.586;2023-05-02T04:42:32;97320.88;;;15.17;50.38
30873;BME280;17579;42.690;2.586;2023-05-02T04:45:08;97315.91;;;15.14;50.04
30873;BME280;17579;42.690;2.586;2023-05-02T04:47:45;97326.75;;;15.12;50.31
30873;BME280;17579;42.690;2.586;2023-05-02T04:50:14;97332.06;;;15.12;50.48
30873;BME280;17579;42.690;2.586;2023-05-02T04:52:49;97328.06;;;15.16;50.00
30873;BME280;17579;42.690;2.586;2023-05-02T04:55:37;97332.56;;;15.16;50.15
30873;BME280;17579;42.690;2.586;2023-05-02T04:58:06;97339.25;;;15.12;50.41
30873;BME280;17579;42.690;2.586;2023-05-02T05:03:49;97354.06;;;15.14;50.20
30873;BME280;17579;42.690;2.586;2023-05-02T05:06:28;97359.38;;;15.14;50.27
30873;BME280;17579;42.690;2.586;2023-05-02T05:08:54;97375.03;;;15.17;50.35
30873;BME280;17579;42.690;2.586;2023-05-02T05:12:48;97368.03;;;15.16;50.11
30873;BME280;17579;42.690;2.586;2023-05-02T05:14:46;97389.31;;;15.24;49.70
30873;BME280;17579;42.690;2.586;2023-05-02T05:17:20;97386.66;;;15.24;49.92
30873;BME280;17579;42.690;2.586;2023-05-02T05:19:47;97392.47;;;15.28;50.15
30873;BME280;17579;42.690;2.586;2023-05-02T05:22:19;97396.78;;;15.29;49.95
30873;BME280;17579;42.690;2.586;2023-05-02T05:25:07;97395.94;;;15.37;49.90
30873;BME280;17579;42.690;2.586;2023-05-02T05:27:53;97397.91;;;15.43;50.01
30873;BME280;17579;42.690;2.586;2023-05-02T05:30:23;97398.91;;;15.42;49.44
30873;BME280;17579;42.690;2.586;2023-05-02T05:33:02;97397.22;;;15.49;49.48
30873;BME280;17579;42.690;2.586;2023-05-02T05:35:50;97400.84;;;15.56;49.66
30873;BME280;17579;42.690;2.586;2023-05-02T05:38:16;97399.50;;;15.61;49.15
30873;BME280;17579;42.690;2.586;2023-05-02T05:40:48;97397.13;;;15.66;49.08
30873;BME280;17579;42.690;2.586;2023-05-02T05:43:21;97392.78;;;15.73;49.10
30873;BME280;17579;42.690;2.586;2023-05-02T05:45:51;97401.19;;;15.93;49.13
30873;BME280;17579;42.690;2.586;2023-05-02T05:48:19;97392.53;;;16.22;48.02
30873;BME280;17579;42.690;2.586;2023-05-02T05:50:50;97394.78;;;16.57;47.97
30873;BME280;17579;42.690;2.586;2023-05-02T05:53:19;97389.81;;;16.92;46.71
30873;BME280;17579;42.690;2.586;2023-05-02T05:56:28;97395.75;;;17.17;46.33
30873;BME280;17579;42.690;2.586;2023-05-02T05:58:39;97389.34;;;17.48;45.68
30873;BME280;17579;42.690;2.586;2023-05-02T06:01:27;97390.56;;;17.60;45.27
30873;BME280;17579;42.690;2.586;2023-05-02T06:04:00;97374.47;;;17.75;44.51
30873;BME280;17579;42.690;2.586;2023-05-02T06:06:30;97387.38;;;17.87;44.90
30873;BME280;17579;42.690;2.586;2023-05-02T06:09:03;97383.09;;;18.07;44.68
30873;BME280;17579;42.690;2.586;2023-05-02T06:11:35;97385.06;;;18.20;44.15
30873;BME280;17579;42.690;2.586;2023-05-02T06:14:08;97390.31;;;18.28;43.80
30873;BME280;17579;42.690;2.586;2023-05-02T06:19:36;97388.91;;;18.54;42.97
30873;BME280;17579;42.690;2.586;2023-05-02T06:22:10;97397.22;;;18.59;42.69
30873;BME280;17579;42.690;2.586;2023-05-02T06:24:38;97387.38;;;18.66;42.34
30873;BME280;17579;42.690;2.586;2023-05-02T06:27:09;97376.06;;;18.71;42.34
30873;BME280;17579;42.690;2.586;2023-05-02T06:30:05;97373.88;;;18.81;42.59
30873;BME280;17579;42.690;2.586;2023-05-02T06:32:36;97382.63;;;18.90;41.85
30873;BME280;17579;42.690;2.586;2023-05-02T06:35:13;97389.53;;;18.99;41.46
30873;BME280;17579;42.690;2.586;2023-05-02T06:38:05;97375.94;;;19.08;42.37
30873;BME280;17579;42.690;2.586;2023-05-02T06:40:33;97391.34;;;19.27;41.17
30873;BME280;17579;42.690;2.586;2023-05-02T06:43:06;97380.97;;;19.52;41.48
30873;BME280;17579;42.690;2.586;2023-05-02T06:45:38;97370.47;;;19.64;40.61
30873;BME280;17579;42.690;2.586;2023-05-02T06:48:10;97357.69;;;19.66;40.79
30873;BME280;17579;42.690;2.586;2023-05-02T06:50:39;97371.63;;;19.83;40.41
30873;BME280;17579;42.690;2.586;2023-05-02T06:53:12;97380.50;;;19.90;40.23
30873;BME280;17579;42.690;2.586;2023-05-02T06:55:44;97377.66;;;19.99;40.25
30873;BME280;17579;42.690;2.586;2023-05-02T06:58:20;97369.84;;;20.17;39.93
30873;BME280;17579;42.690;2.586;2023-05-02T07:00:56;97372.16;;;20.27;39.20
30873;BME280;17579;42.690;2.586;2023-05-02T07:03:32;97375.84;;;20.26;39.68
30873;BME280;17579;42.690;2.586;2023-05-02T07:06:08;97359.56;;;20.34;39.12
30873;BME280;17579;42.690;2.586;2023-05-02T07:08:35;97363.69;;;20.43;38.57
30873;BME280;17579;42.690;2.586;2023-05-02T07:11:10;97351.91;;;20.51;38.99
30873;BME280;17579;42.690;2.586;2023-05-02T07:14:05;97350.31;;;20.70;38.76
30873;BME280;17579;42.690;2.586;2023-05-02T07:16:47;97335.56;;;21.00;38.19
30873;BME280;17579;42.690;2.586;2023-05-02T07:19:14;97332.03;;;21.06;38.04
30873;BME280;17579;42.690;2.586;2023-05-02T07:21:50;97320.41;;;21.19;37.44
30873;BME280;17579;42.690;2.586;2023-05-02T07:24:39;97318.38;;;21.21;38.73
30873;BME280;17579;42.690;2.586;2023-05-02T07:27:39;97309.56;;;21.45;37.67
30873;BME280;17579;42.690;2.586;2023-05-02T07:30:06;97319.03;;;21.68;36.72
30873;BME280;17579;42.690;2.586;2023-05-02T07:32:41;97330.41;;;21.70;37.58
30873;BME280;17579;42.690;2.586;2023-05-02T07:35:18;97335.09;;;21.88;36.96
30873;BME280;17579;42.690;2.586;2023-05-02T07:37:52;97319.66;;;22.02;36.77
30873;BME280;17579;42.690;2.586;2023-05-02T07:40:40;97326.38;;;22.18;36.88
30873;BME280;17579;42.690;2.586;2023-05-02T07:43:12;97316.56;;;22.30;35.49
30873;BME280;17579;42.690;2.586;2023-05-02T07:45:42;97304.69;;;22.45;35.61
30873;BME280;17579;42.690;2.586;2023-05-02T07:48:30;97304.69;;;22.45;35.17
30873;BME280;17579;42.690;2.586;2023-05-02T07:51:25;97305.63;;;22.57;34.87
30873;BME280;17579;42.690;2.586;2023-05-02T07:53:53;97300.38;;;22.62;35.07
30873;BME280;17579;42.690;2.586;2023-05-02T07:56:47;97298.75;;;22.80;34.81
30873;BME280;17579;42.690;2.586;2023-05-02T08:02:56;97288.53;;;23.07;34.85
30873;BME280;17579;42.690;2.586;2023-05-02T08:05:52;97272.91;;;23.16;34.48
30873;BME280;17579;42.690;2.586;2023-05-02T08:08:43;97261.09;;;23.47;34.28
30873;BME280;17579;42.690;2.586;2023-05-02T08:11:11;97254.38;;;23.68;32.24
30873;BME280;17579;42.690;2.586;2023-05-02T08:13:40;97268.41;;;23.59;32.77
30873;BME280;17579;42.690;2.586;2023-05-02T08:16:17;97272.84;;;23.53;32.96
30873;BME280;17579;42.690;2.586;2023-05-02T08:19:01;97291.00;;;23.46;33.67
30873;BME280;17579;42.690;2.586;2023-05-02T08:21:53;97294.31;;;23.48;32.26
30873;BME280;17579;42.690;2.586;2023-05-02T08:24:24;97287.81;;;23.37;32.27
30873;BME280;17579;42.690;2.586;2023-05-02T08:27:01;97272.53;;;23.31;31.90
30873;BME280;17579;42.690;2.586;2023-05-02T08:29:48;97285.63;;;22.90;33.49
30873;BME280;17579;42.690;2.586;2023-05-02T08:32:16;97289.81;;;22.86;32.52
30873;BME280;17579;42.690;2.586;2023-05-02T08:35:00;97289.91;;;22.73;33.00
30873;BME280;17579;42.690;2.586;2023-05-02T08:37:29;97292.78;;;22.53;32.87
30873;BME280;17579;42.690;2.586;2023-05-02T08:40:06;97312.19;;;22.43;32.86
30873;BME280;17579;42.690;2.586;2023-05-02T08:42:40;97310.28;;;22.11;33.47
30873;BME280;17579;42.690;2.586;2023-05-02T08:45:27;97325.69;;;21.97;33.63
30873;BME280;17579;42.690;2.586;2023-05-02T08:48:07;97340.81;;;22.05;33.56
30873;BME280;17579;42.690;2.586;2023-05-02T08:50:48;97342.56;;;22.18;33.34
30873;BME280;17579;42.690;2.586;2023-05-02T08:53:14;97350.06;;;22.09;33.19
30873;BME280;17579;42.690;2.586;2023-05-02T08:56:04;97349.56;;;21.94;34.00
30873;BME280;17579;42.690;2.586;2023-05-02T09:02:11;97339.25;;;21.84;34.06
30873;BME280;17579;42.690;2.586;2023-05-02T09:04:53;97323.41;;;21.62;34.74
30873;BME280;17579;42.690;2.586;2023-05-02T09:10:11;97325.66;;;21.66;34.75
30873;BME280;17579;42.690;2.586;2023-05-02T09:12:42;97322.97;;;21.72;34.32
30873;BME280;17579;42.690;2.586;2023-05-02T09:15:34;97311.78;;;21.69;34.58
30873;BME280;17579;42.690;2.586;2023-05-02T09:18:20;97308.66;;;21.72;33.86
30873;BME280;17579;42.690;2.586;2023-05-02T09:21:00;97321.75;;;21.61;34.08
30873;BME280;17579;42.690;2.586;2023-05-02T09:26:19;97300.00;;;21.63;34.71
30873;BME280;17579;42.690;2.586;2023-05-02T09:28:56;97299.78;;;21.65;34.02
30873;BME280;17579;42.690;2.586;2023-05-02T09:31:32;97282.63;;;21.59;33.98
30873;BME280;17579;42.690;2.586;2023-05-02T09:36:45;97265.88;;;21.50;34.30
30873;BME280;17579;42.690;2.586;2023-05-02T09:39:19;97264.22;;;21.56;33.95
30873;BME280;17579;42.690;2.586;2023-05-02T09:41:48;97270.25;;;21.51;33.96
30873;BME280;17579;42.690;2.586;2023-05-02T09:44:35;97277.91;;;21.54;34.50
30873;BME280;17579;42.690;2.586;2023-05-02T09:47:10;97297.75;;;21.60;33.67
30873;BME280;17579;42.690;2.586;2023-05-02T09:49:48;97276.19;;;21.67;33.58
30873;BME280;17579;42.690;2.586;2023-05-02T09:52:18;97272.84;;;21.71;33.86
30873;BME280;17579;42.690;2.586;2023-05-02T09:54:48;97290.66;;;21.72;34.14
30873;BME280;17579;42.690;2.586;2023-05-02T09:57:40;97287.47;;;21.82;34.41
30873;BME280;17579;42.690;2.586;2023-05-02T10:03:40;97281.19;;;21.95;33.81
30873;BME280;17579;42.690;2.586;2023-05-02T10:06:09;97265.44;;;21.98;33.79
30873;BME280;17579;42.690;2.586;2023-05-02T10:09:02;97270.56;;;22.07;33.72
30873;BME280;17579;42.690;2.586;2023-05-02T10:11:36;97277.09;;;22.18;33.24
30873;BME280;17579;42.690;2.586;2023-05-02T10:14:43;97273.19;;;22.13;33.20
30873;BME280;17579;42.690;2.586;2023-05-02T10:17:26;97280.59;;;22.18;33.38
30873;BME280;17579;42.690;2.586;2023-05-02T10:20:21;97269.63;;;22.20;33.32
30873;BME280;17579;42.690;2.586;2023-05-02T10:22:59;97272.03;;;22.35;33.20
30873;BME280;17579;42.690;2.586;2023-05-02T10:25:38;97271.78;;;22.36;33.27
30873;BME280;17579;42.690;2.586;2023-05-02T10:28:06;97283.34;;;22.43;32.98
30873;BME280;17579;42.690;2.586;2023-05-02T10:30:42;97269.28;;;22.41;32.38
30873;BME280;17579;42.690;2.586;2023-05-02T10:33:27;97264.47;;;22.43;32.53
30873;BME280;17579;42.690;2.586;2023-05-02T10:36:07;97260.31;;;22.47;31.65
30873;BME280;17579;42.690;2.586;2023-05-02T10:38:45;97252.00;;;22.49;31.36
30873;BME280;17579;42.690;2.586;2023-05-02T10:41:18;97249.47;;;22.54;31.61
30873;BME280;17579;42.690;2.586;2023-05-02T10:43:55;97226.47;;;22.52;31.61
30873;BME280;17579;42.690;2.586;2023-05-02T10:46:35;97236.97;;;22.60;30.08
30873;BME280;17579;42.690;2.586;2023-05-02T10:49:23;97232.41;;;22.60;29.22
30873;BME280;17579;42.690;2.586;2023-05-02T10:51:54;97220.81;;;22.60;30.17
30873;BME280;17579;42.690;2.586;2023-05-02T11:00:28;97218.19;;;22.72;27.90
30873;BME280;17579;42.690;2.586;2023-05-02T11:03:52;97227.09;;;22.72;28.97
30873;BME280;17579;42.690;2.586;2023-05-02T11:06:21;97235.78;;;22.74;28.88
30873;BME280;17579;42.690;2.586;2023-05-02T11:09:28;97228.22;;;22.83;27.59
30873;BME280;17579;42.690;2.586;2023-05-02T11:11:46;97231.91;;;22.89;28.56
30873;BME280;17579;42.690;2.586;2023-05-02T11:24:52;97239.25;;;23.18;28.01
30873;BME280;17579;42.690;2.586;2023-05-02T11:29:56;97219.81;;;23.28;27.68
30873;BME280;17579;42.690;2.586;2023-05-02T11:35:04;97216.91;;;23.30;28.12
30873;BME280;17579;42.690;2.586;2023-05-02T11:37:33;97217.63;;;23.37;27.38
30873;BME280;17579;42.690;2.586;2023-05-02T11:42:42;97215.09;;;23.42;27.52
30873;BME280;17579;42.690;2.586;2023-05-02T11:45:32;97212.81;;;23.58;27.19
30873;BME280;17579;42.690;2.586;2023-05-02T11:48:12;97201.81;;;23.71;27.37
30873;BME280;17579;42.690;2.586;2023-05-02T11:51:05;97201.72;;;23.78;27.06
30873;BME280;17579;42.690;2.586;2023-05-02T11:53:39;97204.47;;;23.90;27.17
30873;BME280;17579;42.690;2.586;2023-05-02T11:56:10;97195.41;;;23.96;25.76
30873;BME280;17579;42.690;2.586;2023-05-02T12:01:30;97185.78;;;23.88;25.82
30873;BME280;17579;42.690;2.586;2023-05-02T12:04:07;97209.25;;;23.87;25.86
30873;BME280;17579;42.690;2.586;2023-05-02T12:07:15;97193.13;;;23.81;26.33
30873;BME280;17579;42.690;2.586;2023-05-02T12:15:35;97184.03;;;24.06;25.65
30873;BME280;17579;42.690;2.586;2023-05-02T12:18:25;97176.06;;;24.11;25.72
30873;BME280;17579;42.690;2.586;2023-05-02T12:21:30;97181.59;;;24.16;25.37
30873;BME280;17579;42.690;2.586;2023-05-02T12:24:00;97172.19;;;24.30;23.96
30873;BME280;17579;42.690;2.586;2023-05-02T12:26:53;97168.31;;;24.38;23.73
30873;BME280;17579;42.690;2.586;2023-05-02T12:29:42;97167.94;;;24.46;23.98
30873;BME280;17579;42.690;2.586;2023-05-02T12:32:27;97172.53;;;24.69;24.10
30873;BME280;17579;42.690;2.586;2023-05-02T12:35:39;97176.94;;;24.99;24.79
30873;BME280;17579;42.690;2.586;2023-05-02T12:38:12;97176.72;;;25.30;23.52
30873;BME280;17579;42.690;2.586;2023-05-02T12:46:31;97174.16;;;26.15;22.10
30873;BME280;17579;42.690;2.586;2023-05-02T12:51:40;97178.53;;;26.72;21.03
30873;BME280;17579;42.690;2.586;2023-05-02T12:54:33;97178.69;;;27.04;20.67
30873;BME280;17579;42.690;2.586;2023-05-02T12:57:04;97174.78;;;27.17;20.21
30873;BME280;17579;42.690;2.586;2023-05-02T12:59:33;97174.13;;;27.54;20.24
30873;BME280;17579;42.690;2.586;2023-05-02T13:02:02;97176.22;;;27.79;19.65
30873;BME280;17579;42.690;2.586;2023-05-02T13:04:45;97175.31;;;27.96;19.80
30873;BME280;17579;42.690;2.586;2023-05-02T13:07:22;97179.75;;;28.07;19.85
30873;BME280;17579;42.690;2.586;2023-05-02T13:09:59;97170.44;;;28.35;19.73
30873;BME280;17579;42.690;2.586;2023-05-02T13:12:38;97160.31;;;28.63;19.40
30873;BME280;17579;42.690;2.586;2023-05-02T13:15:27;97157.88;;;28.67;19.41
30873;BME280;17579;42.690;2.586;2023-05-02T13:17:53;97160.09;;;28.80;18.51
30873;BME280;17579;42.690;2.586;2023-05-02T13:20:32;97161.97;;;28.75;18.27
30873;BME280;17579;42.690;2.586;2023-05-02T13:22:58;97165.53;;;28.75;18.47
30873;BME280;17579;42.690;2.586;2023-05-02T13:25:27;97168.22;;;28.70;19.11
30873;BME280;17579;42.690;2.586;2023-05-02T13:28:02;97174.28;;;28.88;19.03
30873;BME280;17579;42.690;2.586;2023-05-02T13:30:38;97181.16;;;28.95;18.93
30873;BME280;17579;42.690;2.586;2023-05-02T13:33:03;97180.91;;;29.07;18.61
30873;BME280;17579;42.690;2.586;2023-05-02T13:35:34;97164.91;;;29.21;18.81
30873;BME280;17579;42.690;2.586;2023-05-02T13:38:10;97182.31;;;29.20;19.06
30873;BME280;17579;42.690;2.586;2023-05-02T13:40:47;97169.59;;;29.31;19.16
30873;BME280;17579;42.690;2.586;2023-05-02T13:43:21;97173.09;;;29.26;19.09
30873;BME280;17579;42.690;2.586;2023-05-02T13:45:53;97163.03;;;29.32;18.57
30873;BME280;17579;42.690;2.586;2023-05-02T13:48:18;97173.66;;;29.28;18.39
30873;BME280;17579;42.690;2.586;2023-05-02T13:50:57;97170.38;;;29.26;18.54
30873;BME280;17579;42.690;2.586;2023-05-02T13:53:36;97171.22;;;29.27;19.04
30873;BME280;17579;42.690;2.586;2023-05-02T13:56:14;97166.28;;;29.24;18.72
30873;BME280;17579;42.690;2.586;2023-05-02T13:58:53;97168.41;;;29.11;17.87
30873;BME280;17579;42.690;2.586;2023-05-02T14:01:19;97155.53;;;28.91;18.26
30873;BME280;17579;42.690;2.586;2023-05-02T14:04:11;97153.03;;;28.84;17.90
30873;BME280;17579;42.690;2.586;2023-05-02T14:06:45;97151.09;;;28.69;18.32
30873;BME280;17579;42.690;2.586;2023-05-02T14:09:23;97149.16;;;28.65;17.94
30873;BME280;17579;42.690;2.586;2023-05-02T14:11:52;97153.22;;;28.62;17.87
30873;BME280;17579;42.690;2.586;2023-05-02T14:14:31;97148.84;;;28.61;17.31
30873;BME280;17579;42.690;2.586;2023-05-02T14:17:07;97130.25;;;28.48;17.43
30873;BME280;17579;42.690;2.586;2023-05-02T14:19:53;97143.03;;;28.47;17.87
30873;BME280;17579;42.690;2.586;2023-05-02T14:22:29;97143.28;;;28.46;17.63
30873;BME280;17579;42.690;2.586;2023-05-02T14:25:10;97131.97;;;28.16;17.22
30873;BME280;17579;42.690;2.586;2023-05-02T14:27:46;97139.56;;;27.82;17.88
30873;BME280;17579;42.690;2.586;2023-05-02T14:30:15;97122.97;;;27.46;17.71
30873;BME280;17579;42.690;2.586;2023-05-02T14:32:51;97126.97;;;27.16;18.53
30873;BME280;17579;42.690;2.586;2023-05-02T14:35:41;97136.31;;;27.03;18.40
30873;BME280;17579;42.690;2.586;2023-05-02T14:38:10;97129.91;;;26.87;18.39
30873;BME280;17579;42.690;2.586;2023-05-02T14:41:15;97121.56;;;26.72;19.09
30873;BME280;17579;42.690;2.586;2023-05-02T14:43:51;97129.41;;;26.68;19.01
30873;BME280;17579;42.690;2.586;2023-05-02T14:46:20;97134.72;;;26.63;18.53
30873;BME280;17579;42.690;2.586;2023-05-02T14:48:48;97133.03;;;26.57;18.67
30873;BME280;17579;42.690;2.586;2023-05-02T14:51:24;97128.28;;;26.47;17.76
30873;BME280;17579;42.690;2.586;2023-05-02T14:54:38;97140.56;;;26.33;18.25
30873;BME280;17579;42.690;2.586;2023-05-02T14:57:27;97140.72;;;26.26;19.29
30873;BME280;17579;42.690;2.586;2023-05-02T14:59:53;97147.88;;;26.32;19.05
30873;BME280;17579;42.690;2.586;2023-05-02T15:02:26;97150.09;;;26.35;18.93
30873;BME280;17579;42.690;2.586;2023-05-02T15:04:55;97142.47;;;26.32;18.46
30873;BME280;17579;42.690;2.586;2023-05-02T15:07:33;97148.69;;;26.33;18.86
30873;BME280;17579;42.690;2.586;2023-05-02T15:10:04;97142.63;;;26.25;18.62
30873;BME280;17579;42.690;2.586;2023-05-02T15:12:35;97143.44;;;26.26;19.45
30873;BME280;17579;42.690;2.586;2023-05-02T15:15:13;97137.44;;;26.24;18.61
30873;BME280;17579;42.690;2.586;2023-05-02T15:20:48;97150.53;;;26.10;18.41
30873;BME280;17579;42.690;2.586;2023-05-02T15:23:14;97142.38;;;26.10;18.82